sensor_id;sensor_type;location;lat;lon;timestamp;P1;durP1;ratioP1;P2;durP2;ratioP2
37869;SDS011;62531;53.326;-1.368;2022-08-21T00:02:22;6.40;;;1.40;;
37869;SDS011;62531;53.326;-1.368;2022-08-21T00:06:25;5.18;;;1.50;;
37869;SDS011;62531;53.326;-1.368;2022-08-21T00:10:26;6.75;;;1.38;;
37869;SDS011;62531;53.326;-1.368;2022-08-21T00:14:27;5.63;;;1.50;;
37869;SDS011;62531;53.326;-1.368;2022-08-21T00:18:29;5.00;;;1.42;;
37869;SDS011;62531;53.326;-1.368;2022-08-21T00:22:31;4.88;;;1.60;;
37869;SDS011;62531;53.326;-1.368;2022-08-21T00:26:32;5.77;;;1.53;;
37869;SDS011;62531;53.326;-1.368;2022-08-21T00:30:34;5.55;;;1.23;;
37869;SDS011;62531;53.326;-1.368;2022-08-21T00:34:36;6.68;;;1.63;;
37869;SDS011;62531;53.326;-1.368;2022-08-21T00:38:37;6.00;;;1.57;;
37869;SDS011;62531;53.326;-1.368;2022-08-21T00:42:39;4.93;;;1.20;;
37869;SDS011;62531;53.326;-1.368;2022-08-21T00:46:41;5.85;;;1.30;;
37869;SDS011;62531;53.326;-1.368;2022-08-21T00:50:45;5.93;;;1.40;;
37869;SDS011;62531;53.326;-1.368;2022-08-21T00:54:51;5.37;;;1.33;;
37869;SDS011;62531;53.326;-1.368;2022-08-21T00:58:54;5.13;;;1.40;;
37869;SDS011;62531;53.326;-1.368;2022-08-21T01:02:58;7.70;;;1.52;;
37869;SDS011;62531;53.326;-1.368;2022-08-21T01:07:00;6.60;;;1.57;;
37869;SDS011;62531;53.326;-1.368;2022-08-21T01:11:02;5.00;;;1.35;;
37869;SDS011;62531;53.326;-1.368;2022-08-21T01:15:05;6.10;;;1.48;;
37869;SDS011;62531;53.326;-1.368;2022-08-21T01:19:07;5.13;;;1.33;;
37869;SDS011;62531;53.326;-1.368;2022-08-21T01:23:10;6.03;;;1.38;;
37869;SDS011;62531;53.326;-1.368;2022-08-21T01:27:11;6.80;;;1.33;;
37869;SDS011;62531;53.326;-1.368;2022-08-21T01:31:12;5.85;;;1.42;;
37869;SDS011;62531;53.326;-1.368;2022-08-21T01:35:16;6.43;;;1.50;;
37869;SDS011;62531;53.326;-1.368;2022-08-21T01:39:19;6.10;;;1.40;;
37869;SDS011;62531;53.326;-1.368;2022-08-21T01:43:20;4.20;;;1.40;;
37869;SDS011;62531;53.326;-1.368;2022-08-21T01:47:22;6.83;;;1.17;;
37869;SDS011;62531;53.326;-1.368;2022-08-21T01:51:25;6.68;;;1.67;;
37869;SDS011;62531;53.326;-1.368;2022-08-21T01:55:26;5.05;;;1.30;;
37869;SDS011;62531;53.326;-1.368;2022-08-21T01:59:28;6.60;;;1.70;;
37869;SDS011;62531;53.326;-1.368;2022-08-21T02:03:29;4.18;;;1.30;;
37869;SDS011;62531;53.326;-1.368;2022-08-21T02:07:41;4.50;;;1.20;;
37869;SDS011;62531;53.326;-1.368;2022-08-21T02:11:45;5.30;;;1.52;;
37869;SDS011;62531;53.326;-1.368;2022-08-21T02:15:46;4.63;;;1.07;;
37869;SDS011;62531;53.326;-1.368;2022-08-21T02:19:47;5.47;;;1.48;;
37869;SDS011;62531;53.326;-1.368;2022-08-21T02:23:48;4.60;;;1.10;;
37869;SDS011;62531;53.326;-1.368;2022-08-21T02:27:50;5.20;;;1.47;;
37869;SDS011;62531;53.326;-1.368;2022-08-21T02:31:52;7.80;;;1.40;;
37869;SDS011;62531;53.326;-1.368;2022-08-21T02:35:54;4.18;;;1.05;;
37869;SDS011;62531;53.326;-1.368;2022-08-21T02:39:56;5.10;;;1.40;;
37869;SDS011;62531;53.326;-1.368;2022-08-21T02:43:57;4.10;;;1.08;;
37869;SDS011;62531;53.326;-1.368;2022-08-21T02:47:59;4.97;;;1.20;;
37869;SDS011;62531;53.326;-1.368;2022-08-21T02:52:04;4.82;;;1.30;;
37869;SDS011;62531;53.326;-1.368;2022-08-21T02:56:07;5.33;;;1.50;;
37869;SDS011;62531;53.326;-1.368;2022-08-21T03:00:10;5.13;;;1.27;;
37869;SDS011;62531;53.326;-1.368;2022-08-21T03:04:13;4.70;;;1.20;;
37869;SDS011;62531;53.326;-1.368;2022-08-21T03:08:15;4.80;;;1.30;;
37869;SDS011;62531;53.326;-1.368;2022-08-21T03:12:17;5.88;;;1.10;;
37869;SDS011;62531;53.326;-1.368;2022-08-21T03:16:18;4.38;;;1.35;;
37869;SDS011;62531;53.326;-1.368;2022-08-21T03:20:22;5.20;;;1.20;;
37869;SDS011;62531;53.326;-1.368;2022-08-21T03:24:24;4.18;;;1.05;;
37869;SDS011;62531;53.326;-1.368;2022-08-21T03:28:25;5.47;;;1.70;;
37869;SDS011;62531;53.326;-1.368;2022-08-21T03:32:27;4.38;;;1.40;;
37869;SDS011;62531;53.326;-1.368;2022-08-21T03:36:29;5.43;;;1.13;;
37869;SDS011;62531;53.326;-1.368;2022-08-21T03:40:30;5.30;;;1.30;;
37869;SDS011;62531;53.326;-1.368;2022-08-21T03:44:31;4.43;;;1.13;;
37869;SDS011;62531;53.326;-1.368;2022-08-21T03:48:33;5.70;;;1.07;;
37869;SDS011;62531;53.326;-1.368;2022-08-21T03:52:36;5.38;;;1.75;;
37869;SDS011;62531;53.326;-1.368;2022-08-21T03:56:38;6.55;;;1.13;;
37869;SDS011;62531;53.326;-1.368;2022-08-21T04:00:39;5.57;;;1.10;;
37869;SDS011;62531;53.326;-1.368;2022-08-21T04:04:41;5.10;;;1.10;;
37869;SDS011;62531;53.326;-1.368;2022-08-21T04:08:42;4.95;;;1.67;;
37869;SDS011;62531;53.326;-1.368;2022-08-21T04:12:44;4.25;;;1.20;;
37869;SDS011;62531;53.326;-1.368;2022-08-21T04:16:45;6.70;;;1.40;;
37869;SDS011;62531;53.326;-1.368;2022-08-21T04:20:47;5.13;;;1.38;;
37869;SDS011;62531;53.326;-1.368;2022-08-21T04:24:52;5.60;;;1.55;;
37869;SDS011;62531;53.326;-1.368;2022-08-21T04:28:53;4.00;;;0.93;;
37869;SDS011;62531;53.326;-1.368;2022-08-21T04:32:57;5.35;;;1.20;;
37869;SDS011;62531;53.326;-1.368;2022-08-21T04:36:59;6.50;;;1.38;;
37869;SDS011;62531;53.326;-1.368;2022-08-21T04:41:00;4.53;;;1.30;;
37869;SDS011;62531;53.326;-1.368;2022-08-21T04:45:02;4.90;;;1.38;;
37869;SDS011;62531;53.326;-1.368;2022-08-21T04:49:04;5.03;;;1.17;;
37869;SDS011;62531;53.326;-1.368;2022-08-21T04:53:06;5.40;;;1.20;;
37869;SDS011;62531;53.326;-1.368;2022-08-21T04:57:10;4.50;;;1.30;;
37869;SDS011;62531;53.326;-1.368;2022-08-21T05:01:13;5.65;;;1.20;;
37869;SDS011;62531;53.326;-1.368;2022-08-21T05:05:17;5.28;;;1.25;;
37869;SDS011;62531;53.326;-1.368;2022-08-21T05:09:19;5.70;;;1.20;;
37869;SDS011;62531;53.326;-1.368;2022-08-21T05:13:22;4.70;;;1.30;;
37869;SDS011;62531;53.326;-1.368;2022-08-21T05:17:23;5.10;;;1.15;;
37869;SDS011;62531;53.326;-1.368;2022-08-21T05:21:24;5.53;;;1.20;;
37869;SDS011;62531;53.326;-1.368;2022-08-21T05:25:25;3.88;;;1.00;;
37869;SDS011;62531;53.326;-1.368;2022-08-21T05:29:26;6.35;;;1.23;;
37869;SDS011;62531;53.326;-1.368;2022-08-21T05:33:29;4.22;;;1.00;;
37869;SDS011;62531;53.326;-1.368;2022-08-21T05:37:31;4.23;;;1.33;;
37869;SDS011;62531;53.326;-1.368;2022-08-21T05:41:32;5.32;;;1.17;;
37869;SDS011;62531;53.326;-1.368;2022-08-21T05:45:33;5.18;;;1.08;;
37869;SDS011;62531;53.326;-1.368;2022-08-21T05:49:35;5.50;;;1.50;;
37869;SDS011;62531;53.326;-1.368;2022-08-21T05:53:36;4.75;;;1.38;;
37869;SDS011;62531;53.326;-1.368;2022-08-21T05:57:38;4.63;;;1.10;;
37869;SDS011;62531;53.326;-1.368;2022-08-21T06:01:41;4.10;;;0.97;;
37869;SDS011;62531;53.326;-1.368;2022-08-21T06:05:42;4.47;;;1.20;;
37869;SDS011;62531;53.326;-1.368;2022-08-21T06:09:44;5.18;;;1.35;;
37869;SDS011;62531;53.326;-1.368;2022-08-21T06:13:45;4.97;;;1.40;;
37869;SDS011;62531;53.326;-1.368;2022-08-21T06:17:46;4.00;;;1.23;;
37869;SDS011;62531;53.326;-1.368;2022-08-21T06:21:48;4.35;;;1.15;;
37869;SDS011;62531;53.326;-1.368;2022-08-21T06:25:49;5.07;;;1.42;;
37869;SDS011;62531;53.326;-1.368;2022-08-21T06:29:50;4.90;;;1.37;;
37869;SDS011;62531;53.326;-1.368;2022-08-21T06:33:52;4.55;;;1.30;;
37869;SDS011;62531;53.326;-1.368;2022-08-21T06:37:53;4.15;;;1.00;;
37869;SDS011;62531;53.326;-1.368;2022-08-21T06:41:55;4.40;;;1.20;;
37869;SDS011;62531;53.326;-1.368;2022-08-21T06:45:56;5.68;;;1.20;;
37869;SDS011;62531;53.326;-1.368;2022-08-21T06:49:58;5.38;;;1.38;;
37869;SDS011;62531;53.326;-1.368;2022-08-21T06:53:59;3.67;;;1.13;;
37869;SDS011;62531;53.326;-1.368;2022-08-21T06:58:00;4.00;;;1.10;;
37869;SDS011;62531;53.326;-1.368;2022-08-21T07:02:03;5.15;;;1.08;;
37869;SDS011;62531;53.326;-1.368;2022-08-21T07:06:04;3.90;;;1.10;;
37869;SDS011;62531;53.326;-1.368;2022-08-21T07:10:07;4.60;;;1.20;;
37869;SDS011;62531;53.326;-1.368;2022-08-21T07:14:08;4.32;;;1.38;;
37869;SDS011;62531;53.326;-1.368;2022-08-21T07:18:10;3.95;;;1.15;;
37869;SDS011;62531;53.326;-1.368;2022-08-21T07:22:13;5.13;;;1.57;;
37869;SDS011;62531;53.326;-1.368;2022-08-21T07:26:20;4.38;;;1.10;;
37869;SDS011;62531;53.326;-1.368;2022-08-21T07:30:23;5.00;;;1.17;;
37869;SDS011;62531;53.326;-1.368;2022-08-21T07:34:24;5.88;;;1.13;;
37869;SDS011;62531;53.326;-1.368;2022-08-21T07:38:26;4.73;;;1.10;;
37869;SDS011;62531;53.326;-1.368;2022-08-21T07:42:27;4.50;;;1.45;;
37869;SDS011;62531;53.326;-1.368;2022-08-21T07:46:28;4.45;;;1.05;;
37869;SDS011;62531;53.326;-1.368;2022-08-21T07:50:30;4.33;;;1.00;;
37869;SDS011;62531;53.326;-1.368;2022-08-21T07:54:31;5.10;;;1.20;;
37869;SDS011;62531;53.326;-1.368;2022-08-21T07:58:32;4.15;;;1.15;;
37869;SDS011;62531;53.326;-1.368;2022-08-21T08:02:34;3.30;;;1.10;;
37869;SDS011;62531;53.326;-1.368;2022-08-21T08:06:35;3.97;;;1.10;;
37869;SDS011;62531;53.326;-1.368;2022-08-21T08:10:36;5.57;;;1.45;;
37869;SDS011;62531;53.326;-1.368;2022-08-21T08:14:38;4.72;;;1.40;;
37869;SDS011;62531;53.326;-1.368;2022-08-21T08:18:39;3.90;;;1.13;;
37869;SDS011;62531;53.326;-1.368;2022-08-21T08:22:42;4.40;;;1.30;;
37869;SDS011;62531;53.326;-1.368;2022-08-21T08:26:43;5.35;;;1.55;;
37869;SDS011;62531;53.326;-1.368;2022-08-21T08:30:46;4.70;;;1.37;;
37869;SDS011;62531;53.326;-1.368;2022-08-21T08:34:47;5.95;;;1.63;;
37869;SDS011;62531;53.326;-1.368;2022-08-21T08:38:49;6.07;;;1.83;;
37869;SDS011;62531;53.326;-1.368;2022-08-21T08:42:50;5.17;;;1.80;;
37869;SDS011;62531;53.326;-1.368;2022-08-21T08:46:51;6.10;;;1.80;;
37869;SDS011;62531;53.326;-1.368;2022-08-21T08:50:54;5.32;;;1.73;;
37869;SDS011;62531;53.326;-1.368;2022-08-21T08:55:14;5.38;;;2.53;;
37869;SDS011;62531;53.326;-1.368;2022-08-21T08:59:26;5.80;;;1.73;;
37869;SDS011;62531;53.326;-1.368;2022-08-21T09:03:38;5.53;;;2.08;;
37869;SDS011;62531;53.326;-1.368;2022-08-21T09:28:43;6.22;;;1.60;;
37869;SDS011;62531;53.326;-1.368;2022-08-21T09:32:46;6.15;;;2.22;;
37869;SDS011;62531;53.326;-1.368;2022-08-21T09:36:49;6.47;;;2.15;;
37869;SDS011;62531;53.326;-1.368;2022-08-21T09:40:55;6.87;;;2.00;;
37869;SDS011;62531;53.326;-1.368;2022-08-21T09:45:15;5.50;;;2.00;;
37869;SDS011;62531;53.326;-1.368;2022-08-21T09:49:26;5.93;;;2.30;;
37869;SDS011;62531;53.326;-1.368;2022-08-21T09:53:32;5.27;;;2.00;;
37869;SDS011;62531;53.326;-1.368;2022-08-21T09:57:34;6.13;;;2.08;;
37869;SDS011;62531;53.326;-1.368;2022-08-21T10:01:48;6.57;;;1.90;;
37869;SDS011;62531;53.326;-1.368;2022-08-21T10:05:56;5.90;;;2.37;;
37869;SDS011;62531;53.326;-1.368;2022-08-21T10:10:08;6.00;;;2.08;;
37869;SDS011;62531;53.326;-1.368;2022-08-21T10:14:26;7.47;;;2.40;;
37869;SDS011;62531;53.326;-1.368;2022-08-21T10:27:43;6.28;;;1.90;;
37869;SDS011;62531;53.326;-1.368;2022-08-21T10:40:19;7.07;;;1.92;;
37869;SDS011;62531;53.326;-1.368;2022-08-21T10:48:39;11.10;;;3.07;;
37869;SDS011;62531;53.326;-1.368;2022-08-21T10:57:19;8.57;;;2.15;;
37869;SDS011;62531;53.326;-1.368;2022-08-21T11:05:51;8.73;;;2.50;;
37869;SDS011;62531;53.326;-1.368;2022-08-21T11:09:55;13.45;;;2.42;;
37869;SDS011;62531;53.326;-1.368;2022-08-21T11:14:09;8.40;;;2.75;;
37869;SDS011;62531;53.326;-1.368;2022-08-21T11:18:41;8.43;;;2.17;;
37869;SDS011;62531;53.326;-1.368;2022-08-21T11:22:53;8.95;;;3.08;;
37869;SDS011;62531;53.326;-1.368;2022-08-21T11:27:01;11.02;;;3.08;;
37869;SDS011;62531;53.326;-1.368;2022-08-21T11:39:40;11.80;;;3.03;;
37869;SDS011;62531;53.326;-1.368;2022-08-21T11:56:51;15.10;;;3.72;;
37869;SDS011;62531;53.326;-1.368;2022-08-21T12:01:05;10.70;;;2.77;;
37869;SDS011;62531;53.326;-1.368;2022-08-21T12:10:07;11.32;;;3.20;;
37869;SDS011;62531;53.326;-1.368;2022-08-21T12:14:14;10.67;;;2.73;;
37869;SDS011;62531;53.326;-1.368;2022-08-21T12:18:30;10.75;;;2.65;;
37869;SDS011;62531;53.326;-1.368;2022-08-21T12:22:36;11.98;;;3.60;;
37869;SDS011;62531;53.326;-1.368;2022-08-21T12:30:52;10.63;;;2.87;;
37869;SDS011;62531;53.326;-1.368;2022-08-21T12:39:11;8.88;;;2.35;;
37869;SDS011;62531;53.326;-1.368;2022-08-21T12:43:21;9.77;;;3.00;;
37869;SDS011;62531;53.326;-1.368;2022-08-21T12:47:46;9.63;;;2.30;;
37869;SDS011;62531;53.326;-1.368;2022-08-21T12:56:18;11.37;;;3.17;;
37869;SDS011;62531;53.326;-1.368;2022-08-21T13:00:23;8.13;;;2.20;;
37869;SDS011;62531;53.326;-1.368;2022-08-21T13:04:46;11.00;;;2.72;;
37869;SDS011;62531;53.326;-1.368;2022-08-21T13:08:48;9.02;;;2.83;;
37869;SDS011;62531;53.326;-1.368;2022-08-21T13:12:59;9.07;;;2.20;;
37869;SDS011;62531;53.326;-1.368;2022-08-21T13:17:04;9.88;;;2.50;;
37869;SDS011;62531;53.326;-1.368;2022-08-21T13:21:10;10.00;;;2.55;;
37869;SDS011;62531;53.326;-1.368;2022-08-21T13:25:14;9.20;;;2.27;;
37869;SDS011;62531;53.326;-1.368;2022-08-21T13:29:19;10.43;;;2.25;;
37869;SDS011;62531;53.326;-1.368;2022-08-21T13:33:24;7.63;;;2.03;;
37869;SDS011;62531;53.326;-1.368;2022-08-21T13:37:26;9.03;;;2.93;;
37869;SDS011;62531;53.326;-1.368;2022-08-21T13:41:31;8.52;;;2.65;;
37869;SDS011;62531;53.326;-1.368;2022-08-21T13:45:34;8.57;;;2.20;;
37869;SDS011;62531;53.326;-1.368;2022-08-21T13:49:36;7.65;;;2.67;;
37869;SDS011;62531;53.326;-1.368;2022-08-21T13:57:47;7.88;;;2.10;;
37869;SDS011;62531;53.326;-1.368;2022-08-21T14:02:09;10.02;;;2.45;;
37869;SDS011;62531;53.326;-1.368;2022-08-21T14:06:15;10.33;;;2.60;;
37869;SDS011;62531;53.326;-1.368;2022-08-21T14:10:21;7.75;;;2.13;;
37869;SDS011;62531;53.326;-1.368;2022-08-21T14:14:24;7.47;;;2.03;;
37869;SDS011;62531;53.326;-1.368;2022-08-21T14:18:30;7.50;;;2.50;;
37869;SDS011;62531;53.326;-1.368;2022-08-21T14:22:47;8.98;;;2.75;;
37869;SDS011;62531;53.326;-1.368;2022-08-21T14:26:50;6.53;;;2.20;;
37869;SDS011;62531;53.326;-1.368;2022-08-21T14:30:54;9.23;;;2.35;;
37869;SDS011;62531;53.326;-1.368;2022-08-21T14:34:57;7.47;;;2.20;;
37869;SDS011;62531;53.326;-1.368;2022-08-21T14:38:58;7.50;;;2.35;;
37869;SDS011;62531;53.326;-1.368;2022-08-21T14:43:00;8.95;;;2.40;;
37869;SDS011;62531;53.326;-1.368;2022-08-21T14:47:01;8.77;;;2.00;;
37869;SDS011;62531;53.326;-1.368;2022-08-21T14:51:02;7.75;;;2.28;;
37869;SDS011;62531;53.326;-1.368;2022-08-21T14:55:04;10.13;;;2.58;;
37869;SDS011;62531;53.326;-1.368;2022-08-21T14:59:07;7.47;;;2.27;;
37869;SDS011;62531;53.326;-1.368;2022-08-21T15:03:10;7.35;;;2.17;;
37869;SDS011;62531;53.326;-1.368;2022-08-21T15:07:11;6.60;;;1.90;;
37869;SDS011;62531;53.326;-1.368;2022-08-21T15:11:13;7.68;;;2.28;;
37869;SDS011;62531;53.326;-1.368;2022-08-21T15:15:18;5.57;;;1.57;;
37869;SDS011;62531;53.326;-1.368;2022-08-21T15:19:19;6.10;;;1.88;;
37869;SDS011;62531;53.326;-1.368;2022-08-21T15:23:21;7.22;;;2.00;;
37869;SDS011;62531;53.326;-1.368;2022-08-21T15:27:22;6.20;;;2.13;;
37869;SDS011;62531;53.326;-1.368;2022-08-21T15:31:24;7.65;;;2.47;;
37869;SDS011;62531;53.326;-1.368;2022-08-21T15:35:25;6.65;;;1.75;;
37869;SDS011;62531;53.326;-1.368;2022-08-21T15:39:26;7.20;;;2.10;;
37869;SDS011;62531;53.326;-1.368;2022-08-21T15:43:29;6.93;;;1.67;;
37869;SDS011;62531;53.326;-1.368;2022-08-21T15:47:35;6.88;;;1.70;;
37869;SDS011;62531;53.326;-1.368;2022-08-21T15:51:38;7.88;;;1.75;;
37869;SDS011;62531;53.326;-1.368;2022-08-21T15:55:39;6.90;;;2.00;;
37869;SDS011;62531;53.326;-1.368;2022-08-21T15:59:42;5.47;;;1.83;;
37869;SDS011;62531;53.326;-1.368;2022-08-21T16:03:54;7.15;;;2.00;;
37869;SDS011;62531;53.326;-1.368;2022-08-21T16:07:56;8.37;;;2.03;;
37869;SDS011;62531;53.326;-1.368;2022-08-21T16:11:58;6.15;;;1.83;;
37869;SDS011;62531;53.326;-1.368;2022-08-21T16:16:00;6.93;;;2.05;;
37869;SDS011;62531;53.326;-1.368;2022-08-21T16:20:06;6.17;;;1.80;;
37869;SDS011;62531;53.326;-1.368;2022-08-21T16:24:10;6.82;;;1.83;;
37869;SDS011;62531;53.326;-1.368;2022-08-21T16:28:14;6.80;;;1.92;;
37869;SDS011;62531;53.326;-1.368;2022-08-21T16:32:17;5.20;;;1.67;;
37869;SDS011;62531;53.326;-1.368;2022-08-21T16:36:19;6.53;;;2.07;;
37869;SDS011;62531;53.326;-1.368;2022-08-21T16:40:22;7.00;;;2.20;;
37869;SDS011;62531;53.326;-1.368;2022-08-21T16:44:23;6.30;;;1.58;;
37869;SDS011;62531;53.326;-1.368;2022-08-21T16:48:24;6.73;;;2.20;;
37869;SDS011;62531;53.326;-1.368;2022-08-21T16:52:26;5.15;;;1.60;;
37869;SDS011;62531;53.326;-1.368;2022-08-21T16:56:27;5.32;;;1.50;;
37869;SDS011;62531;53.326;-1.368;2022-08-21T17:00:29;7.20;;;2.30;;
37869;SDS011;62531;53.326;-1.368;2022-08-21T17:04:30;6.47;;;1.80;;
37869;SDS011;62531;53.326;-1.368;2022-08-21T17:08:31;6.80;;;2.05;;
37869;SDS011;62531;53.326;-1.368;2022-08-21T17:12:33;5.80;;;1.58;;
37869;SDS011;62531;53.326;-1.368;2022-08-21T17:16:35;6.23;;;1.87;;
37869;SDS011;62531;53.326;-1.368;2022-08-21T17:20:38;6.45;;;1.88;;
37869;SDS011;62531;53.326;-1.368;2022-08-21T17:24:40;6.88;;;1.50;;
37869;SDS011;62531;53.326;-1.368;2022-08-21T17:28:41;6.57;;;1.80;;
37869;SDS011;62531;53.326;-1.368;2022-08-21T17:32:44;5.85;;;1.90;;
37869;SDS011;62531;53.326;-1.368;2022-08-21T17:36:47;6.38;;;1.83;;
37869;SDS011;62531;53.326;-1.368;2022-08-21T17:40:48;6.03;;;1.70;;
37869;SDS011;62531;53.326;-1.368;2022-08-21T17:44:50;5.90;;;1.38;;
37869;SDS011;62531;53.326;-1.368;2022-08-21T17:48:52;4.50;;;1.52;;
37869;SDS011;62531;53.326;-1.368;2022-08-21T17:52:53;6.13;;;1.48;;
37869;SDS011;62531;53.326;-1.368;2022-08-21T17:56:55;4.83;;;1.40;;
37869;SDS011;62531;53.326;-1.368;2022-08-21T18:00:56;5.63;;;1.83;;
37869;SDS011;62531;53.326;-1.368;2022-08-21T18:04:58;5.95;;;1.58;;
37869;SDS011;62531;53.326;-1.368;2022-08-21T18:08:59;6.83;;;2.00;;
37869;SDS011;62531;53.326;-1.368;2022-08-21T18:13:04;5.25;;;1.48;;
37869;SDS011;62531;53.326;-1.368;2022-08-21T18:17:08;7.50;;;2.10;;
37869;SDS011;62531;53.326;-1.368;2022-08-21T18:21:12;5.33;;;1.70;;
37869;SDS011;62531;53.326;-1.368;2022-08-21T18:25:13;6.30;;;1.60;;
37869;SDS011;62531;53.326;-1.368;2022-08-21T18:29:16;5.80;;;1.50;;
37869;SDS011;62531;53.326;-1.368;2022-08-21T18:33:19;6.40;;;1.80;;
37869;SDS011;62531;53.326;-1.368;2022-08-21T18:37:22;4.20;;;1.43;;
37869;SDS011;62531;53.326;-1.368;2022-08-21T18:41:24;6.07;;;1.55;;
37869;SDS011;62531;53.326;-1.368;2022-08-21T18:45:25;7.18;;;1.70;;
37869;SDS011;62531;53.326;-1.368;2022-08-21T18:49:27;6.07;;;1.70;;
37869;SDS011;62531;53.326;-1.368;2022-08-21T18:53:28;6.05;;;1.80;;
37869;SDS011;62531;53.326;-1.368;2022-08-21T18:57:29;5.60;;;1.70;;
37869;SDS011;62531;53.326;-1.368;2022-08-21T19:01:31;4.97;;;1.70;;
37869;SDS011;62531;53.326;-1.368;2022-08-21T19:05:33;4.25;;;1.20;;
37869;SDS011;62531;53.326;-1.368;2022-08-21T19:09:34;4.55;;;1.55;;
37869;SDS011;62531;53.326;-1.368;2022-08-21T19:13:35;5.93;;;1.70;;
37869;SDS011;62531;53.326;-1.368;2022-08-21T19:17:38;6.77;;;1.70;;
37869;SDS011;62531;53.326;-1.368;2022-08-21T19:21:40;6.38;;;2.13;;
37869;SDS011;62531;53.326;-1.368;2022-08-21T19:25:44;7.72;;;1.70;;
37869;SDS011;62531;53.326;-1.368;2022-08-21T19:29:58;5.63;;;1.40;;
37869;SDS011;62531;53.326;-1.368;2022-08-21T19:34:01;6.75;;;1.30;;
37869;SDS011;62531;53.326;-1.368;2022-08-21T19:38:26;5.00;;;1.20;;
37869;SDS011;62531;53.326;-1.368;2022-08-21T19:42:27;6.43;;;1.87;;
37869;SDS011;62531;53.326;-1.368;2022-08-21T19:46:30;18.25;;;2.40;;
37869;SDS011;62531;53.326;-1.368;2022-08-21T19:50:33;8.77;;;2.10;;
37869;SDS011;62531;53.326;-1.368;2022-08-21T19:54:35;26.05;;;2.97;;
37869;SDS011;62531;53.326;-1.368;2022-08-21T19:58:38;19.27;;;2.73;;
37869;SDS011;62531;53.326;-1.368;2022-08-21T20:02:40;13.23;;;1.83;;
37869;SDS011;62531;53.326;-1.368;2022-08-21T20:06:43;12.48;;;1.92;;
37869;SDS011;62531;53.326;-1.368;2022-08-21T20:10:45;10.80;;;2.20;;
37869;SDS011;62531;53.326;-1.368;2022-08-21T20:14:46;11.63;;;2.45;;
37869;SDS011;62531;53.326;-1.368;2022-08-21T20:18:48;10.25;;;2.00;;
37869;SDS011;62531;53.326;-1.368;2022-08-21T20:22:49;11.10;;;2.20;;
37869;SDS011;62531;53.326;-1.368;2022-08-21T20:26:51;10.57;;;2.17;;
37869;SDS011;62531;53.326;-1.368;2022-08-21T20:30:52;7.65;;;2.08;;
37869;SDS011;62531;53.326;-1.368;2022-08-21T20:34:54;7.35;;;1.63;;
37869;SDS011;62531;53.326;-1.368;2022-08-21T20:38:55;11.73;;;2.43;;
37869;SDS011;62531;53.326;-1.368;2022-08-21T20:42:56;7.65;;;1.80;;
37869;SDS011;62531;53.326;-1.368;2022-08-21T20:46:58;8.88;;;1.70;;
37869;SDS011;62531;53.326;-1.368;2022-08-21T20:51:12;7.97;;;1.50;;
37869;SDS011;62531;53.326;-1.368;2022-08-21T20:55:23;6.93;;;1.83;;
37869;SDS011;62531;53.326;-1.368;2022-08-21T21:03:34;8.57;;;1.97;;
37869;SDS011;62531;53.326;-1.368;2022-08-21T21:12:28;8.65;;;1.88;;
37869;SDS011;62531;53.326;-1.368;2022-08-21T21:16:40;6.75;;;2.13;;
37869;SDS011;62531;53.326;-1.368;2022-08-21T21:20:48;7.30;;;1.90;;
37869;SDS011;62531;53.326;-1.368;2022-08-21T21:25:05;6.88;;;1.90;;
37869;SDS011;62531;53.326;-1.368;2022-08-21T21:29:21;8.63;;;1.85;;
37869;SDS011;62531;53.326;-1.368;2022-08-21T21:33:26;6.37;;;1.40;;
37869;SDS011;62531;53.326;-1.368;2022-08-21T21:37:31;6.93;;;1.65;;
37869;SDS011;62531;53.326;-1.368;2022-08-21T21:50:15;7.47;;;1.50;;
37869;SDS011;62531;53.326;-1.368;2022-08-21T22:03:17;6.47;;;1.50;;
37869;SDS011;62531;53.326;-1.368;2022-08-21T22:16:00;7.60;;;1.80;;
37869;SDS011;62531;53.326;-1.368;2022-08-21T22:20:07;5.63;;;1.40;;
37869;SDS011;62531;53.326;-1.368;2022-08-21T22:24:16;5.57;;;1.48;;
37869;SDS011;62531;53.326;-1.368;2022-08-21T22:28:25;5.43;;;1.70;;
37869;SDS011;62531;53.326;-1.368;2022-08-21T22:36:34;6.57;;;2.10;;
37869;SDS011;62531;53.326;-1.368;2022-08-21T22:40:37;5.63;;;1.63;;
37869;SDS011;62531;53.326;-1.368;2022-08-21T22:44:49;5.63;;;1.83;;
37869;SDS011;62531;53.326;-1.368;2022-08-21T22:53:06;6.43;;;1.63;;
37869;SDS011;62531;53.326;-1.368;2022-08-21T22:57:10;6.00;;;1.70;;
37869;SDS011;62531;53.326;-1.368;2022-08-21T23:09:31;4.90;;;1.50;;
37869;SDS011;62531;53.326;-1.368;2022-08-21T23:13:39;5.65;;;1.80;;
37869;SDS011;62531;53.326;-1.368;2022-08-21T23:17:46;5.15;;;1.95;;
37869;SDS011;62531;53.326;-1.368;2022-08-21T23:26:21;5.63;;;1.93;;
37869;SDS011;62531;53.326;-1.368;2022-08-21T23:43:54;4.82;;;1.45;;
37869;SDS011;62531;53.326;-1.368;2022-08-21T23:52:57;5.27;;;1.50;;
